LFCK/DCM METAR and TAF weather

Enter ICAO airport designator
Station Type Date Time Source
LFCK METAR 2021/07/30 22:30 UTC NOAA

LFCK 302230Z AUTO 07002KT 9999 OVC028 17/16 Q1017


Station Type Date Time Source
LFCK Decoded METAR 2021/07/30 22:30 UTC NOAA

Station name not available
Jul 30, 2021 - 06:30 PM EDT / 2021.07.30 2230 UTC
Wind: from the ENE (070 degrees) at 2 MPH (2 KT):0
Visibility: greater than 7 mile(s):0
Sky conditions: overcast
Temperature: 62 F (17 C)
Dew Point: 60 F (16 C)
Relative Humidity: 93%
Pressure (altimeter): 30.03 in. Hg (1017 hPa)
ob: LFCK 302230Z AUTO 07002KT 9999 OVC028 17/16 Q1017
cycle: 22

Station Type Date Time Source
LFCK TAF UTC NOAA

Error!

Example: see airport list